TimeEST,TemperatureF,Dew PointF,Humidity,Sea Level PressureIn,VisibilityMPH,Wind Direction,Wind SpeedMPH,Gust SpeedMPH,PrecipitationIn,Events,Conditions,WindDirDegrees,DateUTC
12:54 AM,28.9,26.1,89,30.53,10.0,Calm,Calm,-,N/A,,Clear,0,2012-11-17 05:54:00
1:54 AM,27.0,25.0,92,30.53,10.0,Calm,Calm,-,N/A,,Clear,0,2012-11-17 06:54:00
2:54 AM,27.0,25.0,92,30.53,10.0,Calm,Calm,-,N/A,,Clear,0,2012-11-17 07:54:00
3:54 AM,26.1,24.1,92,30.53,10.0,Calm,Calm,-,N/A,,Clear,0,2012-11-17 08:54:00
4:54 AM,25.0,21.9,88,30.56,9.0,NE,3.5,-,N/A,,Clear,50,2012-11-17 09:54:00
5:54 AM,27.0,24.1,89,30.58,9.0,Calm,Calm,-,N/A,,Clear,0,2012-11-17 10:54:00
6:54 AM,26.1,24.1,92,30.58,9.0,Calm,Calm,-,N/A,,Partly Cloudy,0,2012-11-17 11:54:00
7:54 AM,27.0,26.1,96,30.60,6.0,Calm,Calm,-,N/A,,Mostly Cloudy,0,2012-11-17 12:54:00
8:54 AM,32.0,28.9,88,30.61,6.0,Calm,Calm,-,N/A,,Mostly Cloudy,0,2012-11-17 13:54:00
9:54 AM,39.0,30.9,73,30.63,8.0,NE,5.8,-,N/A,,Scattered Clouds,40,2012-11-17 14:54:00
10:54 AM,43.0,32.0,65,30.63,8.0,East,5.8,-,N/A,,Scattered Clouds,100,2012-11-17 15:54:00
11:54 AM,46.0,34.0,63,30.61,9.0,ESE,5.8,-,N/A,,Mostly Cloudy,110,2012-11-17 16:54:00
12:54 PM,48.9,34.0,56,30.58,9.0,SSE,4.6,-,N/A,,Mostly Cloudy,150,2012-11-17 17:54:00
1:54 PM,51.1,34.0,52,30.56,10.0,SSE,6.9,-,N/A,,Mostly Cloudy,160,2012-11-17 18:54:00
2:54 PM,52.0,33.1,49,30.54,10.0,Variable,3.5,-,N/A,,Mostly Cloudy,0,2012-11-17 19:54:00
3:54 PM,51.8,33.8,50,30.51,10.0,East,8.1,-,N/A,,Scattered Clouds,90,2012-11-17 20:54:00
4:54 PM,46.9,34.0,61,30.55,10.0,East,5.8,-,N/A,,Scattered Clouds,90,2012-11-17 21:54:00
5:54 PM,41.0,32.0,70,30.54,10.0,East,4.6,-,N/A,,Partly Cloudy,80,2012-11-17 22:54:00
6:54 PM,39.9,30.9,70,30.54,10.0,ENE,3.5,-,N/A,,Partly Cloudy,60,2012-11-17 23:54:00
7:54 PM,37.0,30.9,79,30.54,10.0,Calm,Calm,-,N/A,,Partly Cloudy,0,2012-11-18 00:54:00
8:54 PM,36.0,30.9,82,30.54,10.0,ESE,8.1,-,N/A,,Partly Cloudy,110,2012-11-18 01:54:00
9:54 PM,35.1,30.0,82,30.53,10.0,East,4.6,-,N/A,,Partly Cloudy,100,2012-11-18 02:54:00
10:54 PM,37.0,30.9,79,30.53,10.0,NE,4.6,-,N/A,,Scattered Clouds,40,2012-11-18 03:54:00
11:54 PM,35.1,30.9,85,30.53,10.0,NE,5.8,-,N/A,,Partly Cloudy,40,2012-11-18 04:54:00